ZRH weather

Zürich Airport
Zurich, Canton of Zurich, Switzerland

Public forecast

Using degrees Celsius for public forecast. Weather courtesy of forecast.io.

Current aviation weather report (METAR) for Zürich Airport

Retrieved 2019/10/17 05:20 UTC (0 seconds ago):

LSZH 170520Z VRB01KT CAVOK 07/06 Q1017 NOSIG

Aviation forecast (TAF) for Zürich Airport

Retrieved 2019-10-17 03:36 UTC (2 hours ago):

TAF LSZH 170225Z 1703/1809 VRB03KT 9999 MIFG NSC TX19/1714Z TN06/1704Z TN10/1804Z PROB30 1703/1706 4500 BR BECMG 1705/1708 CAVOK BECMG 1718/1721 9999 BKN070 PROB40 TEMPO 1720/1803 RA PROB30 1803/1807 4500 BR